Time;durP1;ratioP1;P1;durP2;ratioP2;P2;SDS_P1;SDS_P2;PMS_P1;PMS_P2;Temp;Humidity;BMP_temperature;BMP_pressure;BME280_temperature;BME280_humidity;BME280_pressure;Samples;Min_cycle;Max_cycle;Signal;HPM_P1;HPM_P2
2021/11/30 00:00:23;;;;;;;9.70;6.50;;;;;;;1.58;82.07;98372.86;103476;1311;107832;-67
2021/11/30 00:03:16;;;;;;;10.20;6.20;;;;;;;1.62;82.01;98374.81;103501;1311;137132;-67
2021/11/30 00:05:49;;;;;;;11.60;5.80;;;;;;;1.65;82.04;98375.25;103657;1310;96626;-66
2021/11/30 00:08:21;;;;;;;9.10;6.40;;;;;;;1.66;81.81;98379.17;103248;1312;139001;-66
2021/11/30 00:10:54;;;;;;;9.20;6.40;;;;;;;1.65;81.80;98380.40;103458;1312;108776;-67
2021/11/30 00:13:25;;;;;;;9.00;6.10;;;;;;;1.62;81.69;98383.72;104045;1311;108888;-67
2021/11/30 00:15:58;;;;;;;9.50;5.90;;;;;;;1.59;81.62;98386.18;104661;1312;137899;-67
2021/11/30 00:18:32;;;;;;;8.60;5.40;;;;;;;1.58;81.61;98391.34;104725;1315;94767;-67
2021/11/30 00:21:06;;;;;;;10.30;6.50;;;;;;;1.59;81.63;98397.49;104359;1311;139233;-67
2021/11/30 00:23:40;;;;;;;7.10;5.50;;;;;;;1.63;81.69;98403.76;104815;1311;109244;-67
2021/11/30 00:26:12;;;;;;;9.30;6.50;;;;;;;1.66;81.93;98404.17;104737;1312;137329;-67
2021/11/30 00:28:44;;;;;;;9.90;7.70;;;;;;;1.69;81.75;98411.97;104479;1310;94660;-67
2021/11/30 00:31:17;;;;;;;11.20;7.90;;;;;;;1.73;81.75;98411.68;104800;1312;94635;-67
2021/11/30 00:33:48;;;;;;;9.50;7.50;;;;;;;1.74;81.65;98410.80;104682;1314;137560;-68
2021/11/30 00:36:21;;;;;;;10.70;7.70;;;;;;;1.75;81.60;98414.89;103491;1309;109005;-67
2021/11/30 00:38:53;;;;;;;11.00;7.20;;;;;;;1.74;81.48;98415.10;103205;1310;138835;-67
2021/11/30 00:41:25;;;;;;;9.00;6.30;;;;;;;1.71;81.40;98421.33;103329;1308;96325;-67
2021/11/30 00:43:58;;;;;;;9.20;6.00;;;;;;;1.69;81.39;98432.19;103446;1310;137895;-67
2021/11/30 00:46:34;;;;;;;9.70;5.80;;;;;;;1.68;81.36;98442.48;103351;1311;111392;-67
2021/11/30 00:49:11;;;;;;;8.60;5.80;;;;;;;1.69;81.36;98449.67;103420;1312;109104;-67
2021/11/30 00:51:45;;;;;;;6.20;4.60;;;;;;;1.72;81.13;98447.34;103492;1310;137544;-66
2021/11/30 00:54:19;;;;;;;5.70;4.70;;;;;;;1.71;80.78;98452.19;103780;1313;96580;-67
2021/11/30 00:56:52;;;;;;;9.40;5.50;;;;;;;1.71;80.91;98458.88;104078;1312;136793;-66
2021/11/30 00:59:27;;;;;;;9.90;5.70;;;;;;;1.70;80.96;98454.59;103414;1312;111103;-66
2021/11/30 01:02:00;;;;;;;9.30;5.80;;;;;;;1.70;80.78;98456.15;104377;1309;137162;-66
2021/11/30 01:04:33;;;;;;;8.30;5.30;;;;;;;1.68;80.87;98456.89;103542;1310;109445;-65
2021/11/30 01:07:07;;;;;;;6.30;4.70;;;;;;;1.66;80.54;98454.73;103997;1309;96380;-66
2021/11/30 01:09:40;;;;;;;6.20;4.50;;;;;;;1.60;80.12;98461.34;103737;1311;137724;-65
2021/11/30 01:12:13;;;;;;;5.40;4.30;;;;;;;1.59;80.35;98463.61;103597;1310;111144;-65
2021/11/30 01:14:45;;;;;;;7.40;4.70;;;;;;;1.63;80.49;98463.54;103263;1311;137606;-66
2021/11/30 01:17:18;;;;;;;7.70;4.50;;;;;;;1.64;80.50;98470.72;103470;1311;109249;-66
2021/11/30 01:19:50;;;;;;;10.30;5.00;;;;;;;1.62;80.27;98466.30;103358;1317;137154;-66
2021/11/30 01:22:23;;;;;;;7.40;4.40;;;;;;;1.55;80.08;98466.61;103628;1310;95155;-66
2021/11/30 01:24:55;;;;;;;7.10;4.80;;;;;;;1.50;80.08;98474.11;104171;1313;111216;-67
2021/11/30 01:27:27;;;;;;;5.30;4.60;;;;;;;1.46;80.17;98476.79;103408;1312;137789;-66
2021/11/30 01:29:59;;;;;;;5.70;4.40;;;;;;;1.42;80.01;98468.64;103405;1311;109177;-66
2021/11/30 01:32:32;;;;;;;5.90;4.00;;;;;;;1.39;80.04;98471.63;103192;1311;139125;-67
2021/11/30 01:35:04;;;;;;;6.90;4.40;;;;;;;1.39;79.97;98471.63;104196;1313;95963;-66
2021/11/30 01:37:37;;;;;;;6.60;3.80;;;;;;;1.39;79.68;98476.27;103610;1312;137627;-67
2021/11/30 01:40:15;;;;;;;5.40;4.30;;;;;;;1.36;79.62;98485.23;103440;1312;108112;-66
2021/11/30 01:42:51;;;;;;;7.10;4.30;;;;;;;1.33;79.60;98480.69;104818;1312;109564;-66
2021/11/30 01:45:30;;;;;;;8.50;4.50;;;;;;;1.32;79.83;98485.50;103312;1312;137549;-66
2021/11/30 01:50:59;;;;;;;5.60;4.10;;;;;;;1.27;79.61;98493.16;103164;1315;136986;-66
2021/11/30 01:53:31;;;;;;;5.90;3.90;;;;;;;1.23;79.24;98488.79;103042;1317;108883;-66
2021/11/30 01:56:03;;;;;;;4.90;3.30;;;;;;;1.18;79.17;98495.73;103036;1316;137947;-66
2021/11/30 01:58:35;;;;;;;6.50;3.50;;;;;;;1.19;79.10;98502.23;103170;1319;96524;-66
2021/11/30 02:01:07;;;;;;;7.30;3.80;;;;;;;1.16;78.82;98492.52;103122;1317;97035;-66
2021/11/30 02:03:40;;;;;;;7.60;4.30;;;;;;;1.14;78.75;98495.14;103013;1319;137772;-67
2021/11/30 02:06:13;;;;;;;5.30;3.70;;;;;;;1.14;78.88;98496.36;103068;1315;108843;-67
2021/11/30 02:08:46;;;;;;;6.40;3.90;;;;;;;1.13;78.97;98501.17;103027;1315;137227;-67
2021/11/30 02:11:18;;;;;;;5.20;4.00;;;;;;;1.10;78.85;98500.38;103088;1315;96512;-67
2021/11/30 02:13:50;;;;;;;6.50;4.10;;;;;;;1.06;78.98;98499.27;103025;1314;137516;-67
2021/11/30 02:16:23;;;;;;;4.70;3.50;;;;;;;1.02;79.00;98500.90;103059;1315;109796;-67
2021/11/30 02:19:00;;;;;;;6.60;3.70;;;;;;;1.01;79.13;98504.17;103093;1315;108936;-67
2021/11/30 02:21:36;;;;;;;4.40;3.20;;;;;;;1.01;79.13;98501.25;102960;1316;137859;-67
2021/11/30 02:24:10;;;;;;;4.10;3.40;;;;;;;1.02;79.25;98509.80;103161;1316;97542;-67
2021/11/30 02:26:43;;;;;;;6.10;4.00;;;;;;;1.01;79.02;98507.95;103111;1314;137016;-67
2021/11/30 02:29:14;;;;;;;6.50;4.10;;;;;;;1.00;79.24;98508.31;103301;1316;111190;-66
2021/11/30 02:31:49;;;;;;;5.60;3.70;;;;;;;1.00;79.23;98503.33;103438;1309;137351;-67
2021/11/30 02:34:22;;;;;;;6.10;4.00;;;;;;;0.98;79.28;98510.05;103627;1307;108879;-67
2021/11/30 02:37:02;;;;;;;5.10;4.00;;;;;;;0.98;79.51;98510.24;103413;1317;96512;-67
2021/11/30 02:39:35;;;;;;;6.30;3.90;;;;;;;0.97;79.40;98510.25;103366;1312;137632;-67
2021/11/30 02:42:09;;;;;;;5.00;3.90;;;;;;;0.96;79.59;98513.52;103575;1309;111093;-67
2021/11/30 02:44:42;;;;;;;6.00;3.50;;;;;;;0.99;79.53;98513.11;103456;1316;137672;-66
2021/11/30 02:47:17;;;;;;;5.50;3.40;;;;;;;1.01;79.52;98508.44;103442;1311;108823;-66
2021/11/30 02:49:49;;;;;;;6.70;3.60;;;;;;;1.06;79.58;98514.31;103315;1312;137329;-66
2021/11/30 02:52:21;;;;;;;4.50;3.50;;;;;;;1.08;79.45;98518.23;103445;1312;96518;-66
2021/11/30 02:54:54;;;;;;;5.50;3.90;;;;;;;1.09;79.33;98518.55;103632;1312;111130;-66
2021/11/30 02:57:27;;;;;;;7.30;3.80;;;;;;;1.05;79.13;98521.35;103361;1317;137169;-66
2021/11/30 03:00:00;;;;;;;6.20;4.10;;;;;;;1.01;79.12;98526.58;103431;1312;107824;-66
2021/11/30 03:02:32;;;;;;;7.30;3.60;;;;;;;0.99;79.18;98529.38;103319;1312;137058;-66
2021/11/30 03:05:06;;;;;;;6.20;3.50;;;;;;;0.96;79.33;98531.48;104058;1310;96475;-66
2021/11/30 03:07:40;;;;;;;4.60;3.20;;;;;;;0.94;79.00;98540.42;103219;1316;152349;-67
2021/11/30 03:10:15;;;;;;;7.00;3.20;;;;;;;0.95;79.20;98540.41;103498;1317;108883;-66
2021/11/30 03:12:49;;;;;;;4.00;3.30;;;;;;;0.97;79.05;98541.23;103411;1315;108297;-66
2021/11/30 03:15:24;;;;;;;5.20;3.80;;;;;;;1.00;79.16;98543.73;103338;1317;138857;-66
2021/11/30 03:17:56;;;;;;;5.20;4.00;;;;;;;1.00;78.94;98544.58;103467;1314;96502;-66
2021/11/30 03:20:29;;;;;;;5.90;3.90;;;;;;;1.00;79.11;98547.66;103300;1311;137230;-66
2021/11/30 03:23:01;;;;;;;8.40;4.30;;;;;;;0.98;78.95;98547.72;103450;1317;107906;-66
2021/11/30 03:25:33;;;;;;;5.20;3.80;;;;;;;0.95;79.07;98550.85;103539;1309;109686;-66
2021/11/30 03:28:05;;;;;;;5.10;3.00;;;;;;;0.94;78.98;98550.38;103377;1313;137498;-66
2021/11/30 03:30:41;;;;;;;5.20;3.00;;;;;;;0.92;78.98;98553.33;103660;1310;96379;-65
2021/11/30 03:36:03;;;;;;;5.80;2.90;;;;;;;0.93;78.90;98563.05;103403;1311;108729;-66
2021/11/30 03:38:36;;;;;;;6.70;3.40;;;;;;;0.95;78.67;98557.53;103325;1317;137208;-66
2021/11/30 03:41:09;;;;;;;7.30;3.50;;;;;;;0.97;78.71;98559.88;103344;1312;96525;-66
2021/11/30 03:43:42;;;;;;;5.60;3.50;;;;;;;0.97;78.68;98562.44;103423;1317;96514;-66
2021/11/30 03:46:13;;;;;;;5.30;3.40;;;;;;;0.98;78.61;98562.59;104171;1312;137165;-66
2021/11/30 03:48:45;;;;;;;4.80;3.50;;;;;;;0.96;78.51;98562.13;104830;1317;108941;-67
2021/11/30 03:51:18;;;;;;;4.20;3.00;;;;;;;0.92;78.33;98568.55;104560;1315;137016;-67
2021/11/30 03:53:50;;;;;;;4.30;3.20;;;;;;;0.89;78.37;98569.94;105022;1309;94779;-67
2021/11/30 03:56:23;;;;;;;4.40;3.10;;;;;;;0.88;78.29;98574.41;104242;1317;137722;-66
2021/11/30 03:58:55;;;;;;;5.40;3.30;;;;;;;0.86;78.24;98569.50;104555;1315;111859;-67
2021/11/30 04:01:27;;;;;;;3.50;2.60;;;;;;;0.87;78.06;98570.00;104137;1311;108981;-67
2021/11/30 04:04:01;;;;;;;4.70;2.60;;;;;;;0.86;77.89;98568.46;103529;1316;137309;-67
2021/11/30 04:06:33;;;;;;;5.10;3.00;;;;;;;0.87;78.02;98565.20;104751;1314;95310;-66
2021/11/30 04:09:06;;;;;;;6.60;3.00;;;;;;;0.88;77.84;98564.83;104689;1311;137432;-67
2021/11/30 04:11:40;;;;;;;5.20;2.80;;;;;;;0.88;77.92;98573.39;103425;1315;111060;-67
2021/11/30 04:14:12;;;;;;;4.30;2.60;;;;;;;0.86;77.60;98573.27;103418;1309;137223;-67
2021/11/30 04:16:45;;;;;;;3.10;2.50;;;;;;;0.85;77.72;98572.61;103366;1315;108127;-66
2021/11/30 04:19:17;;;;;;;4.20;3.10;;;;;;;0.85;77.92;98571.73;103424;1312;96519;-66
2021/11/30 04:21:49;;;;;;;4.40;2.90;;;;;;;0.85;77.93;98572.77;103289;1315;137072;-67
2021/11/30 04:24:21;;;;;;;4.30;2.40;;;;;;;0.85;77.69;98568.48;103400;1318;110040;-67
2021/11/30 04:26:53;;;;;;;3.70;2.40;;;;;;;0.86;77.71;98569.67;103255;1315;138984;-66
2021/11/30 04:29:25;;;;;;;4.50;2.40;;;;;;;0.87;77.50;98572.72;103410;1317;108896;-66
2021/11/30 04:31:58;;;;;;;5.30;2.90;;;;;;;0.87;77.34;98577.86;103294;1317;139550;-67
2021/11/30 04:34:30;;;;;;;5.30;2.70;;;;;;;0.87;77.45;98578.02;103444;1316;96509;-66
2021/11/30 04:37:02;;;;;;;3.80;2.80;;;;;;;0.88;77.37;98581.25;103563;1316;111172;-67
2021/11/30 04:39:35;;;;;;;6.40;3.50;;;;;;;0.86;77.22;98579.75;103300;1311;137148;-67
2021/11/30 04:42:07;;;;;;;4.50;3.20;;;;;;;0.82;77.09;98583.09;103358;1312;108927;-67
2021/11/30 04:44:46;;;;;;;4.70;3.30;;;;;;;0.78;77.11;98586.61;103501;1310;138885;-68
2021/11/30 04:47:18;;;;;;;6.00;3.00;;;;;;;0.73;76.98;98584.81;103422;1313;96479;-66
2021/11/30 04:49:55;;;;;;;4.20;3.10;;;;;;;0.68;77.33;98586.79;103641;1316;136997;-68
2021/11/30 04:52:29;;;;;;;4.20;3.00;;;;;;;0.65;77.22;98586.68;103289;1313;109002;-66
2021/11/30 04:55:02;;;;;;;4.50;2.70;;;;;;;0.62;77.23;98580.08;103287;1316;108788;-66
2021/11/30 04:57:34;;;;;;;3.90;2.90;;;;;;;0.61;77.33;98587.45;103450;1315;138408;-66
2021/11/30 05:00:08;;;;;;;5.90;3.50;;;;;;;0.62;77.53;98589.66;103602;1315;96626;-66
2021/11/30 05:02:40;;;;;;;5.50;3.50;;;;;;;0.63;77.45;98591.67;104704;1317;138054;-66
2021/11/30 05:05:15;;;;;;;5.00;3.60;;;;;;;0.62;77.44;98593.23;103480;1316;107758;-66
2021/11/30 05:07:47;;;;;;;5.40;3.70;;;;;;;0.59;77.27;98594.14;103565;1316;108498;-66
2021/11/30 05:10:19;;;;;;;5.50;4.10;;;;;;;0.55;77.41;98597.30;103289;1317;137949;-66
2021/11/30 05:12:51;;;;;;;6.50;3.90;;;;;;;0.53;77.56;98602.11;103482;1315;96494;-66
2021/11/30 05:15:24;;;;;;;6.20;4.10;;;;;;;0.52;77.75;98601.95;103387;1315;137334;-66
2021/11/30 05:17:56;;;;;;;5.00;3.80;;;;;;;0.49;77.82;98600.30;103370;1310;108882;-67
2021/11/30 05:20:28;;;;;;;7.10;4.10;;;;;;;0.47;77.77;98608.04;103211;1313;139170;-66
2021/11/30 05:23:00;;;;;;;4.80;3.70;;;;;;;0.47;77.91;98607.52;103429;1315;96519;-66
2021/11/30 05:25:35;;;;;;;5.70;4.10;;;;;;;0.49;77.83;98611.41;103280;1317;96424;-67
2021/11/30 05:28:07;;;;;;;5.50;4.20;;;;;;;0.49;77.80;98612.95;103253;1313;138806;-66
2021/11/30 05:30:40;;;;;;;8.90;4.20;;;;;;;0.46;77.91;98609.77;103315;1316;108833;-66
2021/11/30 05:33:13;;;;;;;5.80;4.90;;;;;;;0.45;77.86;98609.29;103249;1311;137491;-66
2021/11/30 05:35:45;;;;;;;6.20;4.60;;;;;;;0.39;77.76;98612.80;103411;1314;96620;-65
2021/11/30 05:38:18;;;;;;;7.90;5.40;;;;;;;0.30;77.74;98608.16;103276;1317;138582;-67
2021/11/30 05:40:50;;;;;;;6.00;5.00;;;;;;;0.25;77.94;98614.59;103368;1315;111171;-66
2021/11/30 05:43:23;;;;;;;5.00;4.30;;;;;;;0.20;77.81;98620.66;103592;1310;107913;-66
2021/11/30 05:45:55;;;;;;;6.40;4.40;;;;;;;0.18;77.88;98623.07;103036;1317;137814;-67
2021/11/30 05:48:27;;;;;;;5.90;4.50;;;;;;;0.18;77.98;98624.95;103321;1317;96524;-67
2021/11/30 05:51:00;;;;;;;5.10;4.60;;;;;;;0.18;78.02;98624.27;103246;1317;137790;-66
2021/11/30 05:53:32;;;;;;;6.20;4.70;;;;;;;0.20;78.25;98627.83;103566;1314;111228;-66
2021/11/30 05:56:08;;;;;;;6.20;4.80;;;;;;;0.24;78.28;98626.05;103052;1315;139873;-67
2021/11/30 05:58:44;;;;;;;6.90;5.30;;;;;;;0.28;78.45;98628.72;103271;1313;107902;-66
2021/11/30 06:01:22;;;;;;;7.20;5.00;;;;;;;0.30;78.54;98633.13;103298;1317;96618;-66
2021/11/30 06:03:59;;;;;;;7.90;5.10;;;;;;;0.28;78.35;98632.64;103185;1317;136933;-67
2021/11/30 06:06:34;;;;;;;6.60;5.30;;;;;;;0.26;78.23;98632.18;103239;1316;110381;-67
2021/11/30 06:09:09;;;;;;;8.50;5.50;;;;;;;0.23;78.35;98630.69;103013;1316;138408;-66
2021/11/30 06:11:43;;;;;;;6.40;5.40;;;;;;;0.24;78.24;98631.86;103622;1311;109061;-66
2021/11/30 06:14:16;;;;;;;7.30;5.30;;;;;;;0.27;78.44;98628.39;103319;1311;137909;-67
2021/11/30 06:16:49;;;;;;;6.90;5.60;;;;;;;0.30;78.43;98627.98;103625;1313;96503;-66
2021/11/30 06:19:21;;;;;;;7.10;5.40;;;;;;;0.33;78.53;98633.40;103456;1311;111005;-66
2021/11/30 06:21:53;;;;;;;7.20;5.80;;;;;;;0.35;78.45;98622.61;103282;1311;137727;-66
2021/11/30 06:24:26;;;;;;;7.60;6.00;;;;;;;0.33;78.21;98623.16;103208;1312;108810;-66
2021/11/30 06:26:59;;;;;;;9.50;6.30;;;;;;;0.33;78.26;98622.46;102968;1314;137217;-67
2021/11/30 06:29:31;;;;;;;7.60;6.20;;;;;;;0.30;78.42;98623.89;103090;1311;96509;-67
2021/11/30 06:32:04;;;;;;;9.70;6.80;;;;;;;0.24;78.31;98630.15;103077;1311;137721;-66
2021/11/30 06:34:36;;;;;;;8.30;6.70;;;;;;;0.21;78.08;98626.98;103236;1313;108975;-67
2021/11/30 06:37:09;;;;;;;12.50;6.40;;;;;;;0.18;78.25;98629.40;103168;1313;109212;-66
2021/11/30 06:39:41;;;;;;;8.30;6.20;;;;;;;0.19;78.43;98629.39;103384;1316;138329;-68
2021/11/30 06:42:13;;;;;;;9.30;5.90;;;;;;;0.26;78.54;98628.25;103438;1313;96569;-68
2021/11/30 06:44:47;;;;;;;9.80;6.60;;;;;;;0.33;78.53;98623.16;103438;1311;137877;-67
2021/11/30 06:47:20;;;;;;;8.70;6.90;;;;;;;0.40;78.79;98623.91;103373;1310;109034;-67
2021/11/30 06:49:52;;;;;;;11.10;7.50;;;;;;;0.44;78.79;98622.11;103137;1314;110226;-68
2021/11/30 06:52:25;;;;;;;10.80;7.40;;;;;;;0.42;78.41;98619.92;103127;1312;137272;-67
2021/11/30 06:54:57;;;;;;;13.60;8.30;;;;;;;0.41;78.46;98621.33;103090;1311;96616;-68
2021/11/30 06:57:29;;;;;;;10.00;7.40;;;;;;;0.40;78.63;98623.05;103113;1312;137168;-66
2021/11/30 07:00:04;;;;;;;11.40;7.40;;;;;;;0.40;78.56;98622.38;103406;1313;108611;-66
2021/11/30 07:02:37;;;;;;;10.80;7.30;;;;;;;0.40;78.54;98622.52;103319;1312;138305;-66
2021/11/30 07:05:17;;;;;;;10.30;7.20;;;;;;;0.41;78.50;98620.98;103352;1311;96476;-68
2021/11/30 07:08:12;;;;;;;9.00;7.10;;;;;;;0.44;78.68;98618.02;103368;1312;96601;-66
2021/11/30 07:10:52;;;;;;;11.20;8.00;;;;;;;0.49;78.73;98613.29;104343;1311;111414;-67
2021/11/30 07:13:27;;;;;;;11.60;7.90;;;;;;;0.51;78.74;98605.89;104754;1316;108862;-66
2021/11/30 07:16:02;;;;;;;11.00;8.30;;;;;;;0.55;78.72;98603.64;104683;1314;137163;-66
2021/11/30 07:18:36;;;;;;;14.40;9.30;;;;;;;0.57;78.67;98606.17;104759;1312;95156;-66
2021/11/30 07:21:09;;;;;;;14.90;9.30;;;;;;;0.56;78.60;98601.05;103446;1311;137219;-66
2021/11/30 07:23:41;;;;;;;13.90;9.10;;;;;;;0.55;78.69;98597.14;103391;1312;111269;-66
2021/11/30 07:26:16;;;;;;;13.80;9.50;;;;;;;0.60;78.74;98593.95;103470;1313;108920;-66
2021/11/30 07:28:48;;;;;;;14.30;9.50;;;;;;;0.66;78.68;98590.23;103404;1310;137750;-66
2021/11/30 07:31:21;;;;;;;12.00;8.80;;;;;;;0.70;78.62;98586.77;103291;1314;96521;-67
2021/11/30 07:33:53;;;;;;;14.70;9.50;;;;;;;0.78;78.78;98586.44;103190;1312;137583;-66
2021/11/30 07:36:26;;;;;;;13.00;8.90;;;;;;;0.85;78.77;98585.77;103556;1316;111481;-66
2021/11/30 07:38:59;;;;;;;14.30;9.00;;;;;;;0.90;78.56;98584.66;103310;1312;137587;-67
2021/11/30 07:41:32;;;;;;;13.00;8.60;;;;;;;0.91;78.57;98580.20;103465;1313;108900;-67
2021/11/30 07:44:05;;;;;;;12.70;9.10;;;;;;;0.89;78.36;98573.73;103817;1310;96516;-67
2021/11/30 07:46:39;;;;;;;12.20;9.00;;;;;;;0.87;78.36;98571.18;103293;1311;137335;-67
2021/11/30 07:49:13;;;;;;;15.50;9.20;;;;;;;0.83;78.33;98568.54;103382;1315;110257;-67
2021/11/30 07:51:46;;;;;;;14.10;8.70;;;;;;;0.82;78.40;98568.21;103261;1312;138150;-67
2021/11/30 07:54:19;;;;;;;13.30;8.30;;;;;;;0.83;78.37;98566.65;103117;1315;108759;-67
2021/11/30 07:56:51;;;;;;;9.90;7.50;;;;;;;0.79;78.68;98567.59;103163;1312;139010;-67
2021/11/30 07:59:24;;;;;;;12.20;7.20;;;;;;;0.79;78.97;98560.41;103201;1309;96554;-66
2021/11/30 08:01:56;;;;;;;12.80;7.70;;;;;;;0.83;79.12;98551.95;103280;1311;110213;-67
2021/11/30 08:04:29;;;;;;;8.80;7.40;;;;;;;0.88;79.31;98549.08;103385;1314;137923;-70
2021/11/30 08:07:01;;;;;;;10.60;8.50;;;;;;;0.87;79.14;98549.11;103344;1312;109810;-68
2021/11/30 08:09:36;;;;;;;12.20;8.90;;;;;;;0.84;79.27;98544.40;103391;1309;137204;-67
2021/11/30 08:12:10;;;;;;;10.80;8.50;;;;;;;0.83;79.34;98543.04;103498;1310;96648;-66
2021/11/30 08:14:42;;;;;;;14.10;10.10;;;;;;;0.83;79.29;98539.45;103164;1311;137638;-67
2021/11/30 08:17:17;;;;;;;13.20;9.50;;;;;;;0.85;79.30;98538.03;103166;1312;108980;-66
2021/11/30 08:19:50;;;;;;;14.80;9.60;;;;;;;0.86;79.37;98530.14;103075;1312;109045;-66
2021/11/30 08:22:22;;;;;;;14.60;8.10;;;;;;;0.88;79.34;98524.98;103061;1311;138060;-68
2021/11/30 08:24:55;;;;;;;14.60;8.70;;;;;;;0.91;79.22;98519.80;103000;1315;96497;-68
2021/11/30 08:27:27;;;;;;;12.70;8.50;;;;;;;0.96;79.25;98519.34;103197;1311;137807;-67
2021/11/30 08:30:00;;;;;;;12.40;9.00;;;;;;;1.01;78.90;98515.63;103425;1312;110048;-68
2021/11/30 08:32:33;;;;;;;14.70;10.00;;;;;;;1.05;78.98;98508.52;103300;1309;138375;-69
2021/11/30 08:35:06;;;;;;;11.40;9.20;;;;;;;1.14;78.95;98504.92;103574;1310;96641;-67
2021/11/30 08:37:39;;;;;;;14.20;9.40;;;;;;;1.20;78.79;98505.80;103397;1313;96739;-67
2021/11/30 08:40:14;;;;;;;14.00;9.70;;;;;;;1.25;78.40;98500.39;103265;1312;137549;-67
2021/11/30 08:42:46;;;;;;;12.60;9.60;;;;;;;1.26;77.96;98488.21;103318;1310;108623;-69
2021/11/30 08:45:18;;;;;;;10.90;8.70;;;;;;;1.28;77.85;98488.51;103065;1312;138548;-68
2021/11/30 08:47:51;;;;;;;12.60;8.00;;;;;;;1.35;77.54;98490.08;103260;1314;96567;-68
2021/11/30 08:50:24;;;;;;;9.20;7.00;;;;;;;1.47;77.23;98482.23;103119;1314;95329;-67
2021/11/30 08:52:56;;;;;;;10.50;7.90;;;;;;;1.64;76.73;98470.54;103198;1309;137720;-68
2021/11/30 08:55:28;;;;;;;9.70;7.30;;;;;;;1.84;76.25;98467.61;103332;1312;108873;-68
2021/11/30 08:58:05;;;;;;;8.80;6.80;;;;;;;2.11;76.12;98461.45;103318;1313;137298;-68
2021/11/30 09:00:39;;;;;;;10.40;7.20;;;;;;;2.41;75.37;98461.98;103432;1309;95343;-68
2021/11/30 09:03:11;;;;;;;8.80;7.60;;;;;;;2.64;74.96;98451.56;103284;1313;137295;-68
2021/11/30 09:05:43;;;;;;;8.50;6.60;;;;;;;3.00;74.20;98448.26;103436;1309;110388;-68
2021/11/30 09:08:16;;;;;;;8.90;6.30;;;;;;;3.12;73.29;98440.34;102958;1310;108825;-66
2021/11/30 09:10:49;;;;;;;8.20;6.30;;;;;;;3.15;72.61;98434.40;102774;1312;137087;-67
2021/11/30 09:13:23;;;;;;;7.10;6.10;;;;;;;3.22;72.24;98434.70;102728;1311;96661;-67
2021/11/30 09:15:56;;;;;;;6.20;5.50;;;;;;;3.30;71.81;98426.73;102886;1310;136786;-67
2021/11/30 09:18:30;;;;;;;7.50;5.90;;;;;;;3.41;71.42;98422.94;103252;1310;110155;-66
2021/11/30 09:21:03;;;;;;;7.90;6.20;;;;;;;3.45;70.72;98419.56;102850;1306;137541;-68
2021/11/30 09:23:36;;;;;;;10.50;6.50;;;;;;;3.35;70.10;98414.34;102902;1310;109131;-68
2021/11/30 09:26:11;;;;;;;7.80;6.00;;;;;;;3.20;69.42;98410.20;103034;1310;96514;-68
2021/11/30 09:28:44;;;;;;;7.70;5.90;;;;;;;3.11;69.77;98412.55;103132;1309;137159;-68
2021/11/30 09:31:19;;;;;;;7.00;5.40;;;;;;;2.98;68.84;98416.39;102855;1311;110114;-66
2021/11/30 09:33:52;;;;;;;7.90;5.60;;;;;;;2.81;68.73;98412.97;102992;1311;137309;-68
2021/11/30 09:36:24;;;;;;;7.70;5.90;;;;;;;2.64;69.02;98403.69;103283;1311;107795;-66
2021/11/30 09:38:56;;;;;;;5.90;5.20;;;;;;;2.50;69.31;98398.44;103001;1311;136446;-67
2021/11/30 09:41:29;;;;;;;9.20;5.60;;;;;;;2.36;69.07;98388.20;103361;1311;97117;-67
2021/11/30 09:44:01;;;;;;;7.20;5.10;;;;;;;2.26;69.75;98384.04;103341;1311;111194;-66
2021/11/30 09:46:33;;;;;;;7.70;5.10;;;;;;;2.20;69.87;98376.17;103245;1311;137823;-66
2021/11/30 09:49:06;;;;;;;5.70;4.70;;;;;;;2.14;69.86;98375.63;103321;1310;109954;-67
2021/11/30 09:51:39;;;;;;;7.40;5.10;;;;;;;2.12;70.35;98369.14;103202;1306;137663;-67
2021/11/30 09:54:12;;;;;;;6.70;4.90;;;;;;;2.14;70.10;98364.82;103172;1312;97603;-67
2021/11/30 09:56:44;;;;;;;5.70;4.70;;;;;;;2.14;69.96;98357.27;102808;1310;138575;-67
2021/11/30 09:59:17;;;;;;;9.20;5.40;;;;;;;2.13;69.92;98352.16;103324;1309;108428;-67
2021/11/30 10:01:49;;;;;;;7.30;4.90;;;;;;;2.14;70.00;98353.66;103187;1311;108841;-67
2021/11/30 10:04:24;;;;;;;8.10;5.50;;;;;;;2.11;69.94;98350.14;103254;1312;137170;-67
2021/11/30 10:06:56;;;;;;;8.00;6.10;;;;;;;2.06;69.76;98345.86;103382;1310;96471;-67
2021/11/30 10:09:29;;;;;;;8.70;6.20;;;;;;;2.01;69.12;98345.48;103324;1316;137020;-67
2021/11/30 10:12:02;;;;;;;10.30;6.50;;;;;;;1.94;69.22;98335.38;103492;1312;108969;-67
2021/11/30 10:14:36;;;;;;;10.10;7.20;;;;;;;1.88;69.44;98326.32;103281;1312;137435;-68
2021/11/30 10:17:19;;;;;;;9.70;6.80;;;;;;;1.84;69.46;98321.98;103410;1309;96586;-67
2021/11/30 10:19:59;;;;;;;12.00;7.10;;;;;;;1.79;69.92;98311.81;102822;1309;94953;-67
2021/11/30 10:22:53;;;;;;;11.20;7.50;;;;;;;1.75;69.71;98307.83;102469;1311;136988;-66
2021/11/30 10:25:33;;;;;;;11.20;7.50;;;;;;;1.61;70.20;98306.32;102657;1312;109335;-67
2021/11/30 10:28:07;;;;;;;10.40;7.80;;;;;;;1.48;70.94;98308.55;103136;1312;138379;-66
2021/11/30 10:30:41;;;;;;;13.20;8.30;;;;;;;1.40;71.85;98295.75;103475;1316;96551;-67
2021/11/30 10:33:16;;;;;;;11.40;8.20;;;;;;;1.38;72.38;98295.48;103259;1315;138878;-67
2021/11/30 10:35:55;;;;;;;15.20;9.20;;;;;;;1.38;72.83;98295.98;103432;1311;111224;-67
2021/11/30 10:38:36;;;;;;;16.40;9.40;;;;;;;1.38;73.23;98285.71;104627;1309;108813;-67
2021/11/30 10:41:26;;;;;;;13.90;10.10;;;;;;;1.33;73.27;98274.38;103591;1310;136963;-66
2021/11/30 10:44:00;;;;;;;15.80;9.90;;;;;;;1.30;73.55;98270.17;103229;1312;96526;-67
2021/11/30 10:46:35;;;;;;;13.30;9.90;;;;;;;1.26;73.71;98260.17;103064;1311;137039;-66
2021/11/30 10:49:10;;;;;;;19.50;11.50;;;;;;;1.23;73.98;98256.30;104749;1307;110708;-66
2021/11/30 10:51:47;;;;;;;18.20;11.50;;;;;;;1.15;74.09;98252.91;104681;1312;137762;-67
2021/11/30 10:54:24;;;;;;;13.90;10.70;;;;;;;1.15;74.53;98240.95;104972;1314;107788;-66
2021/11/30 10:57:04;;;;;;;14.20;10.90;;;;;;;1.20;74.66;98236.35;103998;1312;138293;-66
2021/11/30 10:59:36;;;;;;;15.20;10.80;;;;;;;1.24;74.78;98229.57;103410;1314;96537;-68
2021/11/30 11:02:11;;;;;;;15.20;11.70;;;;;;;1.30;74.99;98217.42;103583;1310;111264;-67
2021/11/30 11:04:44;;;;;;;17.40;12.50;;;;;;;1.36;75.20;98211.79;103286;1310;137563;-67
2021/11/30 11:07:16;;;;;;;17.70;12.80;;;;;;;1.41;75.34;98208.73;102911;1307;150372;-67
2021/11/30 11:09:50;;;;;;;18.10;13.10;;;;;;;1.41;75.33;98202.05;103064;1310;137892;-67
2021/11/30 11:12:28;;;;;;;21.50;14.10;;;;;;;1.40;75.59;98194.21;103207;1311;96411;-67
2021/11/30 11:15:05;;;;;;;18.80;13.80;;;;;;;1.31;75.68;98191.90;103090;1311;137388;-68
2021/11/30 11:17:37;;;;;;;19.30;13.60;;;;;;;1.22;76.01;98188.37;103277;1313;108024;-67
2021/11/30 11:20:10;;;;;;;17.40;12.80;;;;;;;1.18;76.33;98175.13;103866;1310;108235;-67
2021/11/30 11:22:54;;;;;;;18.60;12.90;;;;;;;1.15;76.39;98162.54;103487;1310;138089;-67
2021/11/30 11:25:32;;;;;;;16.10;12.70;;;;;;;1.18;76.69;98154.58;104095;1310;95017;-68
2021/11/30 11:28:06;;;;;;;18.70;13.50;;;;;;;1.24;76.89;98147.92;103397;1314;137793;-68
2021/11/30 11:30:39;;;;;;;16.90;12.70;;;;;;;1.23;76.93;98141.95;103434;1310;107880;-68
2021/11/30 11:33:11;;;;;;;18.00;13.10;;;;;;;1.17;77.25;98130.98;103300;1311;137500;-68
2021/11/30 11:35:43;;;;;;;22.50;14.30;;;;;;;1.09;77.37;98123.02;103558;1310;96651;-68
2021/11/30 11:38:15;;;;;;;17.70;12.90;;;;;;;1.04;77.61;98115.09;103500;1310;96517;-68
2021/11/30 11:40:47;;;;;;;18.10;12.80;;;;;;;1.05;77.88;98110.61;103235;1313;137915;-67
2021/11/30 11:43:19;;;;;;;17.90;12.20;;;;;;;1.04;78.18;98101.75;103508;1312;109308;-67
2021/11/30 11:45:52;;;;;;;17.60;12.20;;;;;;;1.01;78.41;98094.48;103452;1310;138200;-66
2021/11/30 11:48:28;;;;;;;17.10;12.20;;;;;;;1.03;78.34;98086.05;103211;1314;96503;-66
2021/11/30 11:51:03;;;;;;;17.50;13.00;;;;;;;1.05;78.40;98077.77;103208;1309;138216;-68
2021/11/30 11:53:39;;;;;;;16.00;12.10;;;;;;;1.05;78.50;98064.25;103575;1310;110752;-67
2021/11/30 11:56:23;;;;;;;18.50;12.90;;;;;;;1.02;78.56;98058.18;103594;1309;109434;-66
2021/11/30 11:59:11;;;;;;;19.90;14.50;;;;;;;0.99;78.87;98048.00;103406;1306;138895;-67